Time;durP1;ratioP1;P1;durP2;ratioP2;P2;SDS_P1;SDS_P2;PMS_P1;PMS_P2;Temp;Humidity;BMP_temperature;BMP_pressure;BME280_temperature;BME280_humidity;BME280_pressure;Samples;Min_cycle;Max_cycle;Signal;HPM_P1;HPM_P2
2023/05/20 00:00:08;;;;;;;;;;;13.60;91.30;;;;;;5058051;28;19923;-60
2023/05/20 00:02:34;;;;;;;;;;;13.60;93.90;;;;;;5077079;28;19920;-60
2023/05/20 00:05:00;;;;;;;;;;;13.50;90.20;;;;;;5078209;28;19916;-60
2023/05/20 00:07:25;;;;;;;;;;;13.50;88.70;;;;;;5077408;28;20403;-60
2023/05/20 00:09:51;;;;;;;;;;;13.60;91.80;;;;;;5076745;28;19920;-60
2023/05/20 00:12:17;;;;;;;;;;;13.60;92.40;;;;;;5078279;28;19925;-60
2023/05/20 00:14:42;;;;;;;;;;;13.50;92.40;;;;;;5077214;28;20436;-60
2023/05/20 00:17:08;;;;;;;;;;;13.50;90.80;;;;;;5077478;28;19912;-60
2023/05/20 00:19:34;;;;;;;;;;;13.50;95.50;;;;;;5075441;28;19916;-60
2023/05/20 00:22:00;;;;;;;;;;;13.20;92.40;;;;;;5076472;28;20310;-60
2023/05/20 00:24:26;;;;;;;;;;;13.50;91.90;;;;;;5077190;28;20258;-60
2023/05/20 00:26:51;;;;;;;;;;;13.50;94.80;;;;;;5078401;28;19908;-60
2023/05/20 00:29:17;;;;;;;;;;;13.40;93.00;;;;;;5076268;28;19919;-60
2023/05/20 00:31:43;;;;;;;;;;;13.40;94.30;;;;;;5076736;28;19936;-60
2023/05/20 00:34:08;;;;;;;;;;;13.40;90.90;;;;;;5077804;28;19912;-60
2023/05/20 00:36:34;;;;;;;;;;;13.30;92.90;;;;;;5075516;28;19913;-60
2023/05/20 00:39:00;;;;;;;;;;;13.30;89.70;;;;;;5076019;28;19917;-60
2023/05/20 00:41:26;;;;;;;;;;;13.30;94.40;;;;;;5076694;28;19913;-60
2023/05/20 00:43:55;;;;;;;;;;;13.20;92.90;;;;;;5075794;28;20363;-60
2023/05/20 00:46:22;;;;;;;;;;;13.20;96.80;;;;;;5077671;28;19916;-60
2023/05/20 00:48:48;;;;;;;;;;;13.10;93.80;;;;;;5074315;28;20466;-60
2023/05/20 00:51:14;;;;;;;;;;;13.10;95.30;;;;;;5075142;28;19920;-60
2023/05/20 00:53:40;;;;;;;;;;;13.00;93.80;;;;;;5076848;28;19917;-60
2023/05/20 00:56:06;;;;;;;;;;;13.10;95.80;;;;;;5077139;28;19928;-60
2023/05/20 00:58:33;;;;;;;;;;;13.00;90.50;;;;;;5076934;28;19920;-60
2023/05/20 01:00:58;;;;;;;;;;;12.90;90.90;;;;;;5077088;28;19966;-60
2023/05/20 01:03:24;;;;;;;;;;;12.80;90.30;;;;;;5077157;28;19908;-60
2023/05/20 01:05:49;;;;;;;;;;;12.80;91.60;;;;;;5075840;28;19952;-60
2023/05/20 01:08:15;;;;;;;;;;;12.70;89.80;;;;;;5075843;28;19912;-60
2023/05/20 01:10:42;;;;;;;;;;;12.60;89.30;;;;;;5075883;28;19917;-60
2023/05/20 01:13:10;;;;;;;;;;;12.60;91.60;;;;;;5075237;28;19975;-60
2023/05/20 01:15:36;;;;;;;;;;;12.60;94.40;;;;;;5076550;28;20415;-60
2023/05/20 01:18:06;;;;;;;;;;;12.60;95.70;;;;;;5077403;28;19912;-60
2023/05/20 01:20:32;;;;;;;;;;;12.50;92.50;;;;;;5074952;28;19916;-60
2023/05/20 01:22:57;;;;;;;;;;;12.50;91.50;;;;;;5076295;28;19920;-59
2023/05/20 01:25:26;;;;;;;;;;;12.50;93.70;;;;;;5056517;28;19934;-60
2023/05/20 01:27:53;;;;;;;;;;;12.40;99.90;;;;;;5076590;28;19920;-60
2023/05/20 01:30:19;;;;;;;;;;;12.50;98.10;;;;;;5074990;28;20009;-60
2023/05/20 01:32:53;;;;;;;;;;;12.40;96.80;;;;;;5075176;28;19912;-60
2023/05/20 01:35:20;;;;;;;;;;;12.40;99.80;;;;;;5072647;28;19966;-60
2023/05/20 01:37:46;;;;;;;;;;;12.30;97.10;;;;;;5074990;28;20371;-60
2023/05/20 01:40:14;;;;;;;;;;;12.40;97.90;;;;;;5076471;28;19951;-60
2023/05/20 01:42:40;;;;;;;;;;;12.30;97.80;;;;;;5077054;28;19952;-60
2023/05/20 01:45:06;;;;;;;;;;;12.30;98.60;;;;;;5074616;28;20383;-60
2023/05/20 01:47:31;;;;;;;;;;;12.30;99.90;;;;;;5077227;28;19974;-60
2023/05/20 01:49:57;;;;;;;;;;;12.30;99.90;;;;;;5074445;28;19955;-60
2023/05/20 01:52:23;;;;;;;;;;;12.40;98.90;;;;;;5075457;28;20007;-60
2023/05/20 01:54:50;;;;;;;;;;;12.40;97.00;;;;;;5076390;28;19912;-60
2023/05/20 01:57:22;;;;;;;;;;;12.30;98.60;;;;;;5077810;28;19966;-60
2023/05/20 01:59:48;;;;;;;;;;;12.40;98.40;;;;;;5076921;28;19917;-60
2023/05/20 02:02:13;;;;;;;;;;;12.40;99.90;;;;;;5079792;28;19913;-60
2023/05/20 02:04:41;;;;;;;;;;;12.40;99.90;;;;;;5079153;28;20452;-60
2023/05/20 02:07:06;;;;;;;;;;;12.40;97.60;;;;;;5076486;28;20463;-60
2023/05/20 02:09:32;;;;;;;;;;;12.40;97.20;;;;;;5080083;28;19984;-60
2023/05/20 02:11:58;;;;;;;;;;;12.40;99.90;;;;;;5080116;28;19917;-60
2023/05/20 02:14:23;;;;;;;;;;;12.40;99.10;;;;;;5078941;28;20443;-60
2023/05/20 02:16:49;;;;;;;;;;;12.50;99.90;;;;;;5079600;28;20370;-60
2023/05/20 02:19:22;;;;;;;;;;;12.50;99.90;;;;;;5075758;28;19916;-60
2023/05/20 02:21:48;;;;;;;;;;;12.50;98.30;;;;;;5080628;28;19913;-60
2023/05/20 02:24:14;;;;;;;;;;;12.50;98.50;;;;;;5079281;28;20414;-60
2023/05/20 02:26:40;;;;;;;;;;;12.50;99.90;;;;;;5078294;28;19955;-60
2023/05/20 02:29:05;;;;;;;;;;;12.50;98.60;;;;;;5065005;28;19912;-60
2023/05/20 02:31:31;;;;;;;;;;;12.50;97.10;;;;;;5079955;28;19912;-60
2023/05/20 02:33:57;;;;;;;;;;;12.40;99.50;;;;;;5079120;28;19912;-59
2023/05/20 02:36:22;;;;;;;;;;;12.40;99.80;;;;;;5079181;28;19913;-60
2023/05/20 02:38:48;;;;;;;;;;;12.40;99.90;;;;;;5078448;28;19916;-60
2023/05/20 02:41:14;;;;;;;;;;;12.30;99.70;;;;;;5079166;28;19917;-60
2023/05/20 02:43:39;;;;;;;;;;;12.30;99.90;;;;;;5080351;28;19977;-60
2023/05/20 02:46:05;;;;;;;;;;;12.30;99.00;;;;;;5077810;28;19913;-60
2023/05/20 02:48:31;;;;;;;;;;;12.20;99.90;;;;;;5079571;28;19912;-60
2023/05/20 02:50:58;;;;;;;;;;;12.20;97.60;;;;;;5079352;28;20394;-60
2023/05/20 02:53:23;;;;;;;;;;;12.10;99.60;;;;;;5079299;28;19919;-60
2023/05/20 02:55:49;;;;;;;;;;;12.10;99.80;;;;;;5078706;28;19916;-59
2023/05/20 02:58:16;;;;;;;;;;;12.10;99.90;;;;;;5077264;28;19919;-60
2023/05/20 03:00:42;;;;;;;;;;;12.10;99.90;;;;;;5080708;28;19908;-60
2023/05/20 03:03:08;;;;;;;;;;;12.00;99.90;;;;;;5080219;28;20004;-60
2023/05/20 03:05:37;;;;;;;;;;;12.00;98.80;;;;;;5077111;28;19963;-60
2023/05/20 03:08:08;;;;;;;;;;;11.90;99.90;;;;;;5078175;28;19966;-60
2023/05/20 03:10:34;;;;;;;;;;;11.90;99.30;;;;;;5075705;28;19960;-60
2023/05/20 03:13:00;;;;;;;;;;;11.90;99.90;;;;;;5077370;28;19924;-60
2023/05/20 03:15:25;;;;;;;;;;;11.80;98.10;;;;;;5078806;28;19912;-60
2023/05/20 03:17:51;;;;;;;;;;;11.70;98.40;;;;;;5079428;28;20304;-59
2023/05/20 03:20:17;;;;;;;;;;;11.70;98.90;;;;;;5079102;28;19924;-60
2023/05/20 03:22:43;;;;;;;;;;;11.60;97.70;;;;;;5078409;28;19965;-59
2023/05/20 03:25:08;;;;;;;;;;;11.60;99.90;;;;;;5078487;28;19958;-60
2023/05/20 03:27:35;;;;;;;;;;;11.50;99.90;;;;;;5074251;28;20000;-60
2023/05/20 03:30:02;;;;;;;;;;;11.50;97.40;;;;;;5074921;28;20355;-59
2023/05/20 03:32:27;;;;;;;;;;;11.40;97.70;;;;;;5077174;28;19913;-60
2023/05/20 03:34:53;;;;;;;;;;;11.40;98.10;;;;;;5079305;28;20469;-59
2023/05/20 03:37:19;;;;;;;;;;;11.40;97.90;;;;;;5079145;28;19913;-60
2023/05/20 03:39:44;;;;;;;;;;;11.30;96.70;;;;;;5073495;28;19983;-60
2023/05/20 03:42:10;;;;;;;;;;;11.30;98.90;;;;;;5075513;28;20271;-60
2023/05/20 03:44:36;;;;;;;;;;;11.30;98.20;;;;;;5078849;28;19913;-60
2023/05/20 03:47:01;;;;;;;;;;;11.20;97.50;;;;;;5079137;28;20347;-60
2023/05/20 03:49:27;;;;;;;;;;;11.20;96.70;;;;;;5077266;28;20066;-60
2023/05/20 03:51:52;;;;;;;;;;;11.10;98.00;;;;;;5078747;28;19912;-60
2023/05/20 03:54:18;;;;;;;;;;;11.10;99.90;;;;;;5076537;28;19912;-60
2023/05/20 03:56:45;;;;;;;;;;;11.10;99.90;;;;;;5074467;28;19918;-60
2023/05/20 03:59:11;;;;;;;;;;;11.10;99.90;;;;;;5073332;28;19916;-60
2023/05/20 04:01:37;;;;;;;;;;;11.10;99.90;;;;;;5077850;28;19916;-60
2023/05/20 04:04:03;;;;;;;;;;;11.10;98.80;;;;;;5077067;28;20287;-60
2023/05/20 04:06:28;;;;;;;;;;;11.00;99.90;;;;;;5075388;28;19912;-60
2023/05/20 04:08:54;;;;;;;;;;;11.00;99.90;;;;;;5075092;28;19912;-60
2023/05/20 04:11:20;;;;;;;;;;;11.00;99.90;;;;;;5072931;28;19928;-60
2023/05/20 04:13:46;;;;;;;;;;;11.00;99.90;;;;;;5076902;28;19935;-59
2023/05/20 04:16:11;;;;;;;;;;;11.00;99.90;;;;;;5077049;28;19912;-60
2023/05/20 04:18:37;;;;;;;;;;;11.00;99.90;;;;;;5078220;28;20011;-59
2023/05/20 04:21:04;;;;;;;;;;;11.00;99.90;;;;;;5077850;28;19917;-60
2023/05/20 04:23:29;;;;;;;;;;;10.90;99.90;;;;;;5056996;28;19966;-60
2023/05/20 04:26:00;;;;;;;;;;;10.90;99.20;;;;;;5077293;28;19916;-60
2023/05/20 04:28:26;;;;;;;;;;;10.90;99.90;;;;;;5076646;28;19919;-59
2023/05/20 04:30:59;;;;;;;;;;;10.90;99.90;;;;;;5076110;28;19913;-60
2023/05/20 04:33:25;;;;;;;;;;;10.90;99.90;;;;;;5078569;28;20279;-59
2023/05/20 04:35:51;;;;;;;;;;;10.90;99.90;;;;;;5078906;28;19912;-60
2023/05/20 04:38:17;;;;;;;;;;;10.90;99.90;;;;;;5076786;28;20368;-59
2023/05/20 04:40:42;;;;;;;;;;;10.90;99.90;;;;;;5077813;28;19923;-60
2023/05/20 04:43:08;;;;;;;;;;;10.90;99.90;;;;;;5078345;28;20008;-60
2023/05/20 04:45:35;;;;;;;;;;;10.90;99.90;;;;;;5071559;28;19912;-60
2023/05/20 04:48:01;;;;;;;;;;;10.90;99.90;;;;;;5074670;28;19963;-60
2023/05/20 04:50:27;;;;;;;;;;;10.90;99.90;;;;;;5077898;28;19916;-60
2023/05/20 04:52:52;;;;;;;;;;;10.90;99.90;;;;;;5077692;28;19919;-60
2023/05/20 04:55:20;;;;;;;;;;;10.90;99.90;;;;;;5073805;28;19913;-60
2023/05/20 04:57:45;;;;;;;;;;;10.90;99.90;;;;;;5076300;28;19913;-59
2023/05/20 05:00:12;;;;;;;;;;;10.90;99.90;;;;;;5078735;28;20392;-60
2023/05/20 05:02:37;;;;;;;;;;;10.90;99.90;;;;;;5076164;28;20050;-60
2023/05/20 05:05:03;;;;;;;;;;;10.90;99.90;;;;;;5075374;28;19917;-60
2023/05/20 05:07:30;;;;;;;;;;;10.90;99.90;;;;;;5077645;28;19908;-59
2023/05/20 05:09:55;;;;;;;;;;;10.90;99.90;;;;;;5075737;28;20000;-60
2023/05/20 05:12:21;;;;;;;;;;;10.90;99.90;;;;;;5077725;28;19963;-60
2023/05/20 05:14:46;;;;;;;;;;;10.90;99.90;;;;;;5077380;28;19912;-60
2023/05/20 05:17:12;;;;;;;;;;;10.90;99.90;;;;;;5070535;28;20062;-60
2023/05/20 05:19:38;;;;;;;;;;;11.00;99.90;;;;;;5068134;28;19917;-59
2023/05/20 05:22:03;;;;;;;;;;;10.90;99.90;;;;;;5066349;28;19921;-60
2023/05/20 05:24:29;;;;;;;;;;;11.00;99.90;;;;;;5066186;28;19974;-60
2023/05/20 05:26:55;;;;;;;;;;;11.00;99.90;;;;;;5067637;28;19912;-60
2023/05/20 05:29:20;;;;;;;;;;;11.00;99.90;;;;;;5068972;28;20062;-59
2023/05/20 05:31:46;;;;;;;;;;;11.00;99.90;;;;;;5069294;28;19973;-60
2023/05/20 05:34:12;;;;;;;;;;;11.00;99.90;;;;;;5073200;28;19952;-60
2023/05/20 05:36:38;;;;;;;;;;;11.10;99.90;;;;;;5077631;28;19912;-60
2023/05/20 05:39:04;;;;;;;;;;;11.10;99.90;;;;;;5076135;28;20274;-60
2023/05/20 05:41:30;;;;;;;;;;;11.10;99.90;;;;;;5077370;28;19916;-60
2023/05/20 05:43:57;;;;;;;;;;;11.20;99.90;;;;;;5068569;28;19919;-60
2023/05/20 05:46:23;;;;;;;;;;;11.20;99.90;;;;;;5065456;28;19912;-59
2023/05/20 05:48:49;;;;;;;;;;;11.20;99.90;;;;;;5071045;28;19930;-59
2023/05/20 05:51:15;;;;;;;;;;;11.20;99.90;;;;;;5072580;28;19913;-60
2023/05/20 05:53:41;;;;;;;;;;;11.20;99.90;;;;;;5071968;28;20375;-60
2023/05/20 05:56:06;;;;;;;;;;;11.30;99.90;;;;;;5074444;28;19924;-60
2023/05/20 05:58:33;;;;;;;;;;;11.30;99.90;;;;;;5073846;28;19916;-60
2023/05/20 06:00:58;;;;;;;;;;;11.40;99.90;;;;;;5073609;28;19939;-60
2023/05/20 06:03:28;;;;;;;;;;;11.40;99.90;;;;;;5067784;28;19928;-60
2023/05/20 06:05:54;;;;;;;;;;;11.50;99.90;;;;;;5067956;28;20360;-60
2023/05/20 06:08:20;;;;;;;;;;;11.50;99.90;;;;;;5077109;28;19974;-59
2023/05/20 06:10:47;;;;;;;;;;;11.60;99.90;;;;;;5076518;28;19908;-60
2023/05/20 06:13:12;;;;;;;;;;;11.60;99.90;;;;;;5062790;28;19979;-60
2023/05/20 06:15:39;;;;;;;;;;;11.60;99.90;;;;;;5062807;28;19912;-58
2023/05/20 06:18:05;;;;;;;;;;;11.60;99.90;;;;;;5073376;28;19913;-58
2023/05/20 06:20:30;;;;;;;;;;;11.70;99.90;;;;;;5074394;28;19924;-58
2023/05/20 06:22:56;;;;;;;;;;;11.70;99.90;;;;;;5072570;28;20022;-58
2023/05/20 06:25:22;;;;;;;;;;;11.70;99.90;;;;;;5069891;28;19912;-58
2023/05/20 06:27:48;;;;;;;;;;;11.80;99.90;;;;;;5074333;28;19958;-57
2023/05/20 06:30:14;;;;;;;;;;;11.90;99.90;;;;;;5063070;28;19909;-58
2023/05/20 06:32:39;;;;;;;;;;;11.90;99.90;;;;;;5073692;28;20338;-58
2023/05/20 06:35:05;;;;;;;;;;;12.00;99.90;;;;;;5076596;28;19913;-58
2023/05/20 06:37:31;;;;;;;;;;;12.40;99.90;;;;;;5074992;28;19984;-58
2023/05/20 06:39:57;;;;;;;;;;;12.10;99.90;;;;;;5070605;28;19916;-58
2023/05/20 06:42:22;;;;;;;;;;;12.10;99.90;;;;;;5074333;28;20640;-58
2023/05/20 06:44:48;;;;;;;;;;;12.30;99.90;;;;;;5075728;28;19913;-58
2023/05/20 06:47:16;;;;;;;;;;;12.30;99.90;;;;;;5075509;28;20003;-58
2023/05/20 06:49:42;;;;;;;;;;;12.30;99.90;;;;;;5074823;28;19920;-58
2023/05/20 06:52:08;;;;;;;;;;;12.30;99.90;;;;;;5077884;28;19952;-58
2023/05/20 06:54:38;;;;;;;;;;;12.40;99.90;;;;;;5077456;28;19909;-60
2023/05/20 06:57:07;;;;;;;;;;;12.40;99.90;;;;;;5080292;28;19908;-60
2023/05/20 06:59:34;;;;;;;;;;;12.50;99.90;;;;;;5079923;28;19995;-60
2023/05/20 07:02:00;;;;;;;;;;;12.50;99.90;;;;;;5079550;28;20298;-60
2023/05/20 07:04:26;;;;;;;;;;;12.60;99.90;;;;;;5080135;28;20244;-60
2023/05/20 07:06:52;;;;;;;;;;;12.60;99.90;;;;;;5080324;28;19915;-60
2023/05/20 07:09:18;;;;;;;;;;;12.70;99.90;;;;;;5079972;28;19908;-60
2023/05/20 07:11:44;;;;;;;;;;;12.80;99.90;;;;;;5079941;28;20035;-60
2023/05/20 07:14:10;;;;;;;;;;;12.90;99.90;;;;;;5079971;28;19913;-60
2023/05/20 07:16:36;;;;;;;;;;;12.90;99.90;;;;;;5078207;28;19909;-60
2023/05/20 07:19:05;;;;;;;;;;;13.00;99.90;;;;;;5078351;28;19923;-60
2023/05/20 07:21:31;;;;;;;;;;;13.00;99.90;;;;;;5067954;28;19916;-60
2023/05/20 07:23:57;;;;;;;;;;;13.10;99.90;;;;;;5079819;28;19912;-60
2023/05/20 07:26:22;;;;;;;;;;;13.10;99.90;;;;;;5079994;28;19931;-60
2023/05/20 07:28:48;;;;;;;;;;;13.20;99.90;;;;;;5080007;28;19944;-60
2023/05/20 07:31:14;;;;;;;;;;;13.30;99.90;;;;;;5077987;28;20287;-60
2023/05/20 07:33:40;;;;;;;;;;;13.40;99.90;;;;;;5065440;28;19920;-60
2023/05/20 07:36:06;;;;;;;;;;;13.50;99.90;;;;;;5059818;28;20402;-60
2023/05/20 07:38:31;;;;;;;;;;;13.60;99.90;;;;;;5059779;28;20260;-60
2023/05/20 07:40:57;;;;;;;;;;;13.90;99.90;;;;;;5060160;28;19913;-60
2023/05/20 07:43:23;;;;;;;;;;;13.60;99.90;;;;;;5059577;28;20295;-60
2023/05/20 07:45:49;;;;;;;;;;;13.70;99.90;;;;;;5059346;28;19931;-60
2023/05/20 07:48:15;;;;;;;;;;;13.70;99.90;;;;;;5059504;28;19916;-60
2023/05/20 07:50:40;;;;;;;;;;;13.80;99.90;;;;;;5059742;28;20363;-60
2023/05/20 07:53:06;;;;;;;;;;;13.90;99.90;;;;;;5069310;28;19914;-60
2023/05/20 07:55:35;;;;;;;;;;;14.00;99.90;;;;;;5059440;28;19936;-60
2023/05/20 07:58:01;;;;;;;;;;;14.10;99.90;;;;;;5059291;28;20406;-60
2023/05/20 08:00:27;;;;;;;;;;;14.20;99.90;;;;;;5059043;28;19942;-60
2023/05/20 08:02:53;;;;;;;;;;;14.20;99.90;;;;;;5059739;28;20302;-60
2023/05/20 08:05:18;;;;;;;;;;;14.30;99.90;;;;;;5059320;28;19909;-60
2023/05/20 08:07:44;;;;;;;;;;;14.40;99.90;;;;;;5059139;28;19908;-60
2023/05/20 08:10:10;;;;;;;;;;;14.40;99.90;;;;;;5059555;28;19917;-60
2023/05/20 08:12:36;;;;;;;;;;;14.50;99.90;;;;;;5059784;28;19944;-60
2023/05/20 08:15:03;;;;;;;;;;;14.60;99.90;;;;;;5077037;28;19942;-60
2023/05/20 08:17:28;;;;;;;;;;;14.70;99.90;;;;;;5069348;28;19909;-60
2023/05/20 08:19:55;;;;;;;;;;;14.70;99.90;;;;;;5073833;28;19931;-60
2023/05/20 08:22:21;;;;;;;;;;;14.90;99.90;;;;;;5072925;28;19956;-60
2023/05/20 08:24:46;;;;;;;;;;;14.90;98.70;;;;;;5064513;28;19934;-60
2023/05/20 08:27:12;;;;;;;;;;;14.90;96.70;;;;;;5075156;28;20145;-59
2023/05/20 08:29:38;;;;;;;;;;;15.00;98.20;;;;;;5077210;28;20376;-59
2023/05/20 08:32:03;;;;;;;;;;;15.10;98.90;;;;;;5077506;28;19912;-59
2023/05/20 08:34:29;;;;;;;;;;;15.20;97.70;;;;;;5076864;28;20620;-58
2023/05/20 08:36:56;;;;;;;;;;;15.30;99.60;;;;;;5075762;28;20018;-59
2023/05/20 08:39:22;;;;;;;;;;;15.40;95.60;;;;;;5072672;28;19959;-59
2023/05/20 08:41:48;;;;;;;;;;;15.40;97.20;;;;;;5057279;28;19913;-59
2023/05/20 08:44:13;;;;;;;;;;;15.50;96.60;;;;;;5058415;28;19912;-59
2023/05/20 08:46:40;;;;;;;;;;;15.50;97.10;;;;;;5068266;28;20007;-59
2023/05/20 08:49:06;;;;;;;;;;;15.60;97.30;;;;;;5065009;28;20293;-59
2023/05/20 08:51:32;;;;;;;;;;;15.70;94.90;;;;;;5056485;28;19966;-59
2023/05/20 08:53:58;;;;;;;;;;;15.70;92.00;;;;;;5057683;28;19909;-59
2023/05/20 08:56:26;;;;;;;;;;;15.80;94.10;;;;;;5058037;28;19913;-59
2023/05/20 08:58:52;;;;;;;;;;;15.80;86.90;;;;;;5057499;28;19999;-59
2023/05/20 09:01:18;;;;;;;;;;;15.70;83.10;;;;;;5057039;28;19908;-59
2023/05/20 09:03:44;;;;;;;;;;;15.70;89.70;;;;;;5058453;28;19909;-58
2023/05/20 09:06:09;;;;;;;;;;;15.90;91.30;;;;;;5057887;28;19909;-58
2023/05/20 09:08:35;;;;;;;;;;;15.90;90.30;;;;;;5058038;28;19944;-58
2023/05/20 09:11:01;;;;;;;;;;;16.00;94.10;;;;;;5075034;28;20399;-60
2023/05/20 09:13:29;;;;;;;;;;;16.20;82.50;;;;;;5077309;28;20390;-59
2023/05/20 09:15:54;;;;;;;;;;;16.30;89.90;;;;;;5078180;28;19909;-59
2023/05/20 09:18:20;;;;;;;;;;;16.40;91.60;;;;;;5078194;28;20452;-59
2023/05/20 09:20:46;;;;;;;;;;;16.60;87.50;;;;;;5077573;28;19913;-58
2023/05/20 09:23:12;;;;;;;;;;;16.70;83.10;;;;;;5078032;28;19915;-60
2023/05/20 09:25:38;;;;;;;;;;;16.70;84.60;;;;;;5077815;28;19909;-59
2023/05/20 09:28:04;;;;;;;;;;;16.80;77.70;;;;;;5078182;28;19912;-59
2023/05/20 09:30:31;;;;;;;;;;;17.00;80.60;;;;;;5076825;28;19913;-59
2023/05/20 09:32:57;;;;;;;;;;;17.10;82.70;;;;;;5068222;28;19912;-59
2023/05/20 09:35:23;;;;;;;;;;;17.30;90.00;;;;;;5057689;28;19916;-59
2023/05/20 09:37:58;;;;;;;;;;;17.50;90.00;;;;;;5057933;28;19908;-57
2023/05/20 09:40:26;;;;;;;;;;;17.80;86.90;;;;;;5057305;28;19919;-57
2023/05/20 09:42:53;;;;;;;;;;;17.80;75.40;;;;;;5058057;28;19912;-57
2023/05/20 09:45:21;;;;;;;;;;;18.00;78.80;;;;;;5057594;28;19916;-56
2023/05/20 09:47:47;;;;;;;;;;;18.20;76.70;;;;;;5058114;28;19909;-57
2023/05/20 09:50:13;;;;;;;;;;;18.30;82.20;;;;;;5057612;28;19909;-57
2023/05/20 09:52:40;;;;;;;;;;;18.50;71.70;;;;;;5057521;28;19909;-57
2023/05/20 09:55:06;;;;;;;;;;;18.70;74.10;;;;;;5057586;28;19923;-57
2023/05/20 09:57:35;;;;;;;;;;;18.90;68.20;;;;;;5057484;28;19920;-56
2023/05/20 10:00:02;;;;;;;;;;;19.30;84.10;;;;;;5057382;28;20047;-57
2023/05/20 10:02:28;;;;;;;;;;;20.00;88.10;;;;;;5057392;28;20291;-57
2023/05/20 10:04:54;;;;;;;;;;;20.70;70.40;;;;;;5057495;28;19908;-57
2023/05/20 10:07:36;;;;;;;;;;;21.30;78.80;;;;;;5057426;28;19913;-57
2023/05/20 10:10:13;;;;;;;;;;;21.80;80.40;;;;;;5057439;28;19952;-58
2023/05/20 10:13:05;;;;;;;;;;;21.70;72.00;;;;;;5057222;28;19927;-57
2023/05/20 10:15:39;;;;;;;;;;;22.70;74.30;;;;;;5048313;28;20371;-58
2023/05/20 10:18:05;;;;;;;;;;;23.50;63.70;;;;;;5057142;28;19916;-58
2023/05/20 10:20:31;;;;;;;;;;;24.20;66.00;;;;;;5057279;28;19913;-57
2023/05/20 10:22:57;;;;;;;;;;;25.10;69.80;;;;;;5060529;28;20000;-58
2023/05/20 10:25:26;;;;;;;;;;;25.20;64.30;;;;;;5063426;28;19920;-57
2023/05/20 10:27:51;;;;;;;;;;;26.00;61.40;;;;;;5079255;28;19919;-57
2023/05/20 10:30:18;;;;;;;;;;;27.10;61.20;;;;;;5081484;28;19908;-57
2023/05/20 10:32:55;;;;;;;;;;;27.10;51.40;;;;;;5080948;28;19908;-57
2023/05/20 10:35:22;;;;;;;;;;;26.40;51.90;;;;;;5081155;28;19948;-58
2023/05/20 10:37:47;;;;;;;;;;;26.00;58.60;;;;;;5080977;28;19930;-57
2023/05/20 10:40:14;;;;;;;;;;;26.00;47.90;;;;;;5081181;28;20379;-57
2023/05/20 10:42:40;;;;;;;;;;;26.50;46.20;;;;;;5081305;28;19915;-57
2023/05/20 10:45:06;;;;;;;;;;;27.50;50.30;;;;;;5080974;28;19908;-57
2023/05/20 10:47:32;;;;;;;;;;;26.90;46.60;;;;;;5080803;28;19927;-57
2023/05/20 10:49:58;;;;;;;;;;;28.10;51.10;;;;;;5079924;28;19967;-57
2023/05/20 10:52:24;;;;;;;;;;;29.10;49.40;;;;;;5080382;28;19996;-57
2023/05/20 10:54:53;;;;;;;;;;;29.20;43.40;;;;;;5080428;28;19952;-58
2023/05/20 10:57:20;;;;;;;;;;;27.00;41.90;;;;;;5080476;28;20389;-57
2023/05/20 10:59:46;;;;;;;;;;;27.10;46.60;;;;;;5080752;28;19912;-58
2023/05/20 11:02:14;;;;;;;;;;;27.50;41.80;;;;;;5080686;28;19909;-58
2023/05/20 11:04:41;;;;;;;;;;;28.50;45.80;;;;;;5080711;28;19908;-57
2023/05/20 11:07:07;;;;;;;;;;;29.30;45.10;;;;;;5080377;28;19908;-57
2023/05/20 11:09:33;;;;;;;;;;;29.70;40.90;;;;;;5080674;28;19912;-58
2023/05/20 11:11:59;;;;;;;;;;;28.70;41.00;;;;;;5080110;28;19944;-57
2023/05/20 11:14:26;;;;;;;;;;;29.00;38.60;;;;;;5080502;28;20252;-58
2023/05/20 11:16:55;;;;;;;;;;;28.20;41.90;;;;;;5080470;28;20310;-57
2023/05/20 11:19:20;;;;;;;;;;;28.10;41.50;;;;;;5080367;28;20393;-57
2023/05/20 11:21:46;;;;;;;;;;;27.90;38.30;;;;;;5071979;28;19909;-57
2023/05/20 11:24:12;;;;;;;;;;;28.10;40.90;;;;;;5060491;28;19996;-58
2023/05/20 11:26:38;;;;;;;;;;;29.60;43.70;;;;;;5065347;28;19913;-57
2023/05/20 11:29:04;;;;;;;;;;;31.00;42.70;;;;;;5079372;28;19916;-57
2023/05/20 11:31:32;;;;;;;;;;;31.20;39.20;;;;;;5080072;28;19908;-57
2023/05/20 11:34:00;;;;;;;;;;;30.60;39.80;;;;;;5079108;28;19913;-58
2023/05/20 11:36:27;;;;;;;;;;;29.80;37.50;;;;;;5079605;28;20385;-57
2023/05/20 11:38:53;;;;;;;;;;;29.90;40.80;;;;;;5079961;28;19908;-58
2023/05/20 11:41:23;;;;;;;;;;;30.80;39.30;;;;;;5080140;28;20317;-58
2023/05/20 11:43:54;;;;;;;;;;;29.80;38.70;;;;;;5079826;28;20095;-58
2023/05/20 11:46:19;;;;;;;;;;;29.50;37.70;;;;;;5080034;28;19908;-57
2023/05/20 11:48:54;;;;;;;;;;;29.10;36.80;;;;;;5079287;28;19908;-58
2023/05/20 11:51:26;;;;;;;;;;;29.90;40.80;;;;;;5067288;28;20401;-58
2023/05/20 11:53:52;;;;;;;;;;;29.40;36.90;;;;;;5062785;28;20343;-58
2023/05/20 11:56:17;;;;;;;;;;;29.60;38.10;;;;;;5077434;28;19961;-57
2023/05/20 11:58:44;;;;;;;;;;;29.80;36.80;;;;;;5078059;28;19983;-58
2023/05/20 12:01:09;;;;;;;;;;;29.80;38.20;;;;;;5079043;28;19915;-58
2023/05/20 12:03:35;;;;;;;;;;;30.30;41.10;;;;;;5078982;28;19998;-58
2023/05/20 12:06:01;;;;;;;;;;;29.90;36.00;;;;;;5061129;28;19919;-58
2023/05/20 12:08:27;;;;;;;;;;;30.30;36.20;;;;;;5077338;28;19909;-58
2023/05/20 12:10:53;;;;;;;;;;;29.60;35.30;;;;;;5076538;28;19966;-58
2023/05/20 12:13:18;;;;;;;;;;;28.40;35.00;;;;;;5078956;28;19976;-57
2023/05/20 12:15:44;;;;;;;;;;;26.50;35.90;;;;;;5079236;28;19999;-57
2023/05/20 12:18:10;;;;;;;;;;;27.60;37.50;;;;;;5078275;28;19924;-58
2023/05/20 12:20:36;;;;;;;;;;;28.30;36.90;;;;;;5064580;28;20054;-58
2023/05/20 12:23:01;;;;;;;;;;;28.70;36.50;;;;;;5059004;28;19991;-58
2023/05/20 12:25:28;;;;;;;;;;;29.20;38.00;;;;;;5078800;28;19908;-58
2023/05/20 12:27:54;;;;;;;;;;;29.80;37.80;;;;;;5078849;28;19909;-58
2023/05/20 12:30:20;;;;;;;;;;;30.40;35.50;;;;;;5078821;28;19909;-58
2023/05/20 12:32:51;;;;;;;;;;;30.60;36.90;;;;;;5077644;28;20030;-58
2023/05/20 12:35:18;;;;;;;;;;;29.40;33.40;;;;;;5076620;28;19972;-58
2023/05/20 12:37:43;;;;;;;;;;;29.00;35.70;;;;;;5077157;28;19912;-57
2023/05/20 12:40:10;;;;;;;;;;;28.70;33.90;;;;;;5070653;28;20452;-58
2023/05/20 12:42:39;;;;;;;;;;;28.10;34.60;;;;;;5068872;28;19920;-58
2023/05/20 12:45:05;;;;;;;;;;;27.40;32.90;;;;;;5075949;28;19918;-58
2023/05/20 12:47:32;;;;;;;;;;;26.40;34.20;;;;;;5078946;28;19909;-58
2023/05/20 12:49:57;;;;;;;;;;;26.70;36.00;;;;;;5077400;28;20279;-58
2023/05/20 12:52:23;;;;;;;;;;;27.40;37.20;;;;;;5075057;28;19912;-58
2023/05/20 12:54:49;;;;;;;;;;;27.90;37.10;;;;;;5076211;28;19913;-58
2023/05/20 12:57:14;;;;;;;;;;;27.60;34.20;;;;;;5076332;28;19912;-57
2023/05/20 12:59:40;;;;;;;;;;;27.90;35.10;;;;;;5078064;28;19916;-58
2023/05/20 13:02:05;;;;;;;;;;;28.00;35.00;;;;;;5073410;28;19920;-58
2023/05/20 13:04:31;;;;;;;;;;;28.60;35.60;;;;;;5074934;28;20379;-58
2023/05/20 13:06:57;;;;;;;;;;;28.60;33.20;;;;;;5069857;28;19913;-58
2023/05/20 13:09:23;;;;;;;;;;;28.40;33.70;;;;;;5077665;28;19961;-58
2023/05/20 13:11:48;;;;;;;;;;;28.20;35.00;;;;;;5077791;28;19916;-58
2023/05/20 13:14:14;;;;;;;;;;;28.40;36.20;;;;;;5078354;28;20279;-58
2023/05/20 13:16:40;;;;;;;;;;;27.60;34.20;;;;;;5077822;28;19908;-58
2023/05/20 13:19:06;;;;;;;;;;;27.50;33.80;;;;;;5077312;28;19912;-58
2023/05/20 13:21:31;;;;;;;;;;;27.40;34.00;;;;;;5078076;28;19908;-58
2023/05/20 13:23:57;;;;;;;;;;;27.40;34.10;;;;;;5078034;28;19915;-58
2023/05/20 13:26:22;;;;;;;;;;;27.50;34.30;;;;;;5078745;28;19915;-58
2023/05/20 13:28:49;;;;;;;;;;;27.70;32.70;;;;;;5077038;28;19913;-58
2023/05/20 13:31:14;;;;;;;;;;;27.90;35.10;;;;;;5077148;28;19931;-58
2023/05/20 13:33:40;;;;;;;;;;;27.00;33.40;;;;;;5078078;28;19913;-58
2023/05/20 13:36:06;;;;;;;;;;;27.00;34.50;;;;;;5076856;28;19908;-58
2023/05/20 13:38:32;;;;;;;;;;;27.70;34.60;;;;;;5070700;28;19909;-58
2023/05/20 13:40:58;;;;;;;;;;;27.40;32.00;;;;;;5077950;28;20249;-58
2023/05/20 13:43:27;;;;;;;;;;;27.50;33.20;;;;;;5076578;28;19931;-58
2023/05/20 13:45:53;;;;;;;;;;;27.70;36.30;;;;;;5077130;28;19908;-58
2023/05/20 13:48:19;;;;;;;;;;;27.90;35.50;;;;;;5077658;28;20436;-58
2023/05/20 13:50:45;;;;;;;;;;;28.00;33.40;;;;;;5059698;28;19909;-58
2023/05/20 13:53:12;;;;;;;;;;;27.50;30.80;;;;;;5077587;28;19924;-58
2023/05/20 13:55:38;;;;;;;;;;;26.40;31.50;;;;;;5078836;28;19909;-58
2023/05/20 13:58:07;;;;;;;;;;;27.10;33.20;;;;;;5081876;28;19916;-58
2023/05/20 14:00:34;;;;;;;;;;;27.50;34.00;;;;;;5081802;28;19919;-58
2023/05/20 14:03:03;;;;;;;;;;;27.50;33.00;;;;;;5081593;28;19989;-58
2023/05/20 14:05:31;;;;;;;;;;;27.40;33.20;;;;;;5079417;28;19916;-58
2023/05/20 14:07:57;;;;;;;;;;;27.10;32.00;;;;;;5071837;28;19912;-58
2023/05/20 14:10:23;;;;;;;;;;;26.20;33.30;;;;;;5061468;28;19909;-58